Clemons, Iowa
Current Conditions -  °F | °C
As of 7:53 AM on Friday 24 Oct 2014 (Local Time) from KMIW Reporting Station
Moderate Fog Moderate Fog  
Wind Chill: 10°   Ceiling: 200
Heat Index: 10°   Visibility: 0mi
Dew Point: 10°   Wind: 10mph
Humidity: 100%   Direction: 150°SSE
Pressure: 29.97"   Gusts: NA
Location:  42.11°N, 93.16°W
Report Text: KMIW 241253Z AUTO 15009KT M1/4SM FG VV002 10/10 A2997 RMK AO2 SLP152 T01000100
Loading
Personal Weather Stations






























Interactive Weather Map
Tropical Storm Tracking
New forecast layout! Learn more

10-Day Weather Forecast

Advertisements
Track Severe Weather on mobile